Time;durP1;ratioP1;P1;durP2;ratioP2;P2;SDS_P1;SDS_P2;PMS_P1;PMS_P2;Temp;Humidity;BMP_temperature;BMP_pressure;BME280_temperature;BME280_humidity;BME280_pressure;Samples;Min_cycle;Max_cycle;Signal;HPM_P1;HPM_P2
2022/01/09 00:02:12;;;;;;;9.43;5.80;;;;;;;-0.93;69.86;99756.71;1788472;79;21507;-83
2022/01/09 00:04:39;;;;;;;11.37;6.10;;;;;;;-0.87;69.86;99752.06;1760710;81;21491;-81
2022/01/09 00:07:05;;;;;;;14.63;7.00;;;;;;;-0.89;69.92;99741.67;1760699;81;21562;-83
2022/01/09 00:09:32;;;;;;;14.23;6.97;;;;;;;-0.91;69.93;99735.73;1743297;81;21046;-84
2022/01/09 00:11:58;;;;;;;11.20;6.57;;;;;;;-0.87;70.01;99731.44;1750685;81;21207;-79
2022/01/09 00:14:24;;;;;;;12.10;7.47;;;;;;;-0.90;69.88;99729.95;1747452;82;21512;-82
2022/01/09 00:16:51;;;;;;;11.47;6.93;;;;;;;-0.87;69.89;99724.34;1771319;80;20984;-79
2022/01/09 00:19:17;;;;;;;9.60;6.03;;;;;;;-0.84;69.88;99724.48;1773997;80;20967;-80
2022/01/09 00:21:44;;;;;;;10.30;6.93;;;;;;;-0.83;69.87;99724.31;1800350;79;20984;-85
2022/01/09 00:24:10;;;;;;;14.27;7.17;;;;;;;-0.86;69.91;99722.53;1792015;80;21045;-79
2022/01/09 00:26:37;;;;;;;13.40;6.97;;;;;;;-0.93;70.12;99723.22;1792106;80;21139;-79
2022/01/09 00:29:06;;;;;;;11.93;7.43;;;;;;;-0.93;70.33;99719.76;1792089;80;20969;-78
2022/01/09 00:31:32;;;;;;;16.63;7.07;;;;;;;-0.96;70.50;99722.76;1792043;79;21068;-81
2022/01/09 00:33:58;;;;;;;14.87;7.00;;;;;;;-0.95;70.67;99709.86;1792145;80;21498;-81
2022/01/09 00:36:24;;;;;;;11.53;6.40;;;;;;;-0.96;70.96;99709.56;1792040;80;20970;-81
2022/01/09 00:38:51;;;;;;;21.73;9.23;;;;;;;-0.95;71.17;99701.45;1792042;80;21137;-75
2022/01/09 00:41:17;;;;;;;11.80;7.27;;;;;;;-0.93;71.14;99690.22;1791639;80;21068;-77
2022/01/09 00:43:44;;;;;;;15.00;8.07;;;;;;;-0.93;71.20;99683.63;1773672;80;20996;-76
2022/01/09 00:46:10;;;;;;;15.70;7.73;;;;;;;-0.95;71.31;99688.25;1791937;80;21064;-79
2022/01/09 00:48:37;;;;;;;12.00;7.70;;;;;;;-0.90;71.34;99683.76;1792068;80;21025;-76
2022/01/09 00:51:03;;;;;;;10.73;6.93;;;;;;;-0.91;71.50;99685.57;1774068;80;21017;-76
2022/01/09 00:53:29;;;;;;;13.47;7.20;;;;;;;-0.94;71.63;99679.84;1792075;80;20953;-78
2022/01/09 00:55:55;;;;;;;17.30;8.20;;;;;;;-0.97;71.85;99677.56;1792295;80;21056;-73
2022/01/09 00:58:22;;;;;;;11.87;7.30;;;;;;;-0.95;72.00;99670.27;1774076;80;21106;-79
2022/01/09 01:00:48;;;;;;;16.47;8.67;;;;;;;-0.90;71.94;99662.14;1773941;80;21032;-80
2022/01/09 01:03:15;;;;;;;16.13;7.77;;;;;;;-0.93;71.90;99662.52;1792243;80;22131;-77
2022/01/09 01:05:41;;;;;;;21.30;8.63;;;;;;;-0.98;71.99;99654.30;1791905;80;21011;-76
2022/01/09 01:08:08;;;;;;;15.73;7.83;;;;;;;-0.96;72.13;99652.28;1793919;80;20973;-80
2022/01/09 01:10:34;;;;;;;17.57;8.17;;;;;;;-0.90;72.08;99654.72;1789083;80;21042;-77
2022/01/09 01:13:01;;;;;;;14.00;6.77;;;;;;;-0.87;72.06;99646.47;1763796;81;21487;-79
2022/01/09 01:15:27;;;;;;;13.57;7.53;;;;;;;-0.86;71.99;99648.08;1763681;81;23374;-79
2022/01/09 01:17:53;;;;;;;9.90;5.97;;;;;;;-0.85;72.04;99642.31;1737621;81;22197;-80
2022/01/09 01:20:22;;;;;;;22.07;9.63;;;;;;;-0.87;72.00;99639.87;1763615;81;21017;-78
2022/01/09 01:22:50;;;;;;;18.07;8.23;;;;;;;-0.84;72.19;99640.83;1763889;81;20875;-82
2022/01/09 01:25:20;;;;;;;11.63;7.10;;;;;;;-0.81;72.09;99636.98;1763781;81;21551;-76
2022/01/09 01:27:46;;;;;;;15.00;8.33;;;;;;;-0.85;72.17;99632.58;1763640;81;22195;-79
2022/01/09 01:30:13;;;;;;;14.20;7.63;;;;;;;-0.91;72.25;99631.46;1737579;81;20986;-77
2022/01/09 01:32:41;;;;;;;18.07;7.87;;;;;;;-0.91;72.40;99628.82;1763876;81;21650;-79
2022/01/09 01:35:08;;;;;;;18.03;8.13;;;;;;;-0.96;72.45;99625.10;1737712;81;21026;-76
2022/01/09 01:37:38;;;;;;;16.57;8.23;;;;;;;-0.96;72.60;99623.25;1713405;81;20977;-83
2022/01/09 01:40:12;;;;;;;18.47;9.10;;;;;;;-0.93;72.51;99620.77;1763827;81;21127;-80
2022/01/09 01:42:38;;;;;;;17.27;9.13;;;;;;;-0.95;72.55;99622.26;1762833;81;20942;-81
2022/01/09 01:45:07;;;;;;;17.53;9.83;;;;;;;-1.00;72.61;99609.27;1763956;81;20915;-82
2022/01/09 01:47:33;;;;;;;14.77;7.77;;;;;;;-1.04;72.66;99606.67;1738392;81;21014;-79
2022/01/09 01:49:59;;;;;;;14.03;6.37;;;;;;;-1.06;72.81;99597.63;1738249;81;21057;-79
2022/01/09 01:52:31;;;;;;;11.70;7.07;;;;;;;-1.09;72.85;99594.00;1764267;81;21522;-79
2022/01/09 01:54:54;;;;;;;20.97;8.23;;;;;;;-1.14;72.96;99586.30;1763710;81;20974;-79
2022/01/09 01:57:20;;;;;;;15.57;7.57;;;;;;;-1.07;73.11;99576.69;1763910;81;21077;-78
2022/01/09 01:59:47;;;;;;;17.80;4.73;;;;;;;-1.03;73.17;99580.61;1763173;81;21021;-77
2022/01/09 02:02:13;;;;;;;15.93;8.87;;;;;;;-1.07;73.62;99572.73;1762964;81;21041;-76
2022/01/09 02:04:41;;;;;;;8.27;4.70;;;;;;;-1.10;74.17;99573.89;1762769;81;21509;-74
2022/01/09 02:07:07;;;;;;;9.80;5.40;;;;;;;-1.20;75.40;99573.31;1762818;81;21006;-76
2022/01/09 02:09:34;;;;;;;13.20;7.70;;;;;;;-1.25;76.07;99578.82;1763133;81;21010;-76
2022/01/09 02:12:02;;;;;;;19.47;7.40;;;;;;;-1.32;76.22;99571.60;1763176;81;21086;-74
2022/01/09 02:14:28;;;;;;;10.83;7.37;;;;;;;-1.33;77.13;99565.17;1766412;80;21059;-74
2022/01/09 02:16:55;;;;;;;10.63;6.47;;;;;;;-1.39;78.03;99560.10;1781372;80;22093;-88
2022/01/09 02:19:21;;;;;;;13.17;7.27;;;;;;;-1.39;78.19;99558.78;1723514;82;20988;-76
2022/01/09 02:21:48;;;;;;;9.27;6.00;;;;;;;-1.41;78.71;99551.56;1731538;81;21045;-81
2022/01/09 02:24:14;;;;;;;16.10;6.67;;;;;;;-1.41;79.08;99545.47;1685270;83;21028;-76
2022/01/09 02:26:41;;;;;;;11.63;8.20;;;;;;;-1.34;79.36;99540.61;1730660;82;21032;-76
2022/01/09 02:29:07;;;;;;;9.73;6.87;;;;;;;-1.37;80.01;99531.74;1704593;84;21611;-76
2022/01/09 02:31:35;;;;;;;14.20;6.73;;;;;;;-1.38;80.01;99526.14;1704574;84;21085;-79
2022/01/09 02:34:01;;;;;;;13.00;7.47;;;;;;;-1.33;80.30;99523.80;1704637;84;21037;-79
2022/01/09 02:36:28;;;;;;;13.53;6.90;;;;;;;-1.36;80.73;99524.66;1689911;83;21089;-76
2022/01/09 02:38:54;;;;;;;13.27;7.67;;;;;;;-1.47;81.61;99522.42;1726193;83;21036;-77
2022/01/09 02:41:20;;;;;;;15.50;7.60;;;;;;;-1.54;81.86;99522.83;1712256;83;21172;-78
2022/01/09 02:43:47;;;;;;;14.03;7.73;;;;;;;-1.54;81.97;99516.23;1696152;83;20937;-77
2022/01/09 02:46:52;;;;;;;13.10;7.77;;;;;;;-1.52;82.40;99518.17;1712008;83;21382;-77
2022/01/09 02:49:07;;;;;;;11.53;6.00;;;;;;;-1.57;82.89;99516.08;1709425;83;21037;-76
2022/01/09 02:51:35;;;;;;;14.83;6.93;;;;;;;-1.58;83.14;99510.47;1695707;83;21045;-76
2022/01/09 02:55:05;;;;;;;15.27;7.93;;;;;;;-1.64;83.77;99507.24;1718666;82;21121;-78
2022/01/09 02:56:30;;;;;;;12.40;7.10;;;;;;;-1.71;84.35;99494.43;1683063;83;21030;-77
2022/01/09 02:58:56;;;;;;;11.83;7.17;;;;;;;-1.74;84.47;99500.56;1673429;83;21020;-75
2022/01/09 03:01:23;;;;;;;19.80;8.70;;;;;;;-1.78;84.99;99494.83;1669227;83;21063;-75
2022/01/09 03:03:49;;;;;;;21.43;9.80;;;;;;;-1.76;85.08;99491.50;1690013;83;21552;-74
2022/01/09 03:06:15;;;;;;;13.13;7.23;;;;;;;-1.76;85.41;99486.23;1715259;82;21544;-74
2022/01/09 03:08:42;;;;;;;16.00;8.70;;;;;;;-1.79;85.95;99476.88;1719509;82;20998;-74
2022/01/09 03:11:08;;;;;;;13.20;7.30;;;;;;;-1.85;86.16;99476.74;1684167;83;21129;-78
2022/01/09 03:13:35;;;;;;;13.57;7.87;;;;;;;-1.84;86.34;99477.06;1682384;83;21051;-76
2022/01/09 03:16:01;;;;;;;15.13;9.07;;;;;;;-1.83;86.56;99479.54;1701462;83;21049;-75
2022/01/09 03:18:29;;;;;;;12.63;7.20;;;;;;;-1.82;86.56;99477.20;1722101;83;21096;-75
2022/01/09 03:20:55;;;;;;;13.60;7.87;;;;;;;-1.76;86.80;99475.19;1737164;81;21056;-76
2022/01/09 03:23:21;;;;;;;16.50;7.93;;;;;;;-1.73;86.85;99471.89;1741688;82;20906;-75
2022/01/09 03:25:48;;;;;;;14.23;8.93;;;;;;;-1.73;86.99;99470.58;1720649;81;21013;-75
2022/01/09 03:28:14;;;;;;;14.73;8.10;;;;;;;-1.76;87.21;99468.59;1674816;83;21052;-76
2022/01/09 03:30:41;;;;;;;14.90;10.00;;;;;;;-1.74;87.14;99469.75;1725254;81;21121;-76
2022/01/09 03:33:07;;;;;;;17.47;9.63;;;;;;;-1.76;87.31;99465.14;1725491;83;20994;-74
2022/01/09 03:35:33;;;;;;;15.47;8.27;;;;;;;-1.76;87.49;99462.50;1741575;81;20997;-74
2022/01/09 03:38:00;;;;;;;14.80;8.83;;;;;;;-1.72;87.71;99463.78;1695618;83;21000;-75
2022/01/09 03:40:28;;;;;;;13.20;9.03;;;;;;;-1.73;87.88;99466.62;1710542;82;21040;-75
2022/01/09 03:42:55;;;;;;;15.63;8.60;;;;;;;-1.73;87.93;99458.22;1715955;83;21073;-74
2022/01/09 03:45:24;;;;;;;11.07;7.57;;;;;;;-1.70;87.98;99451.27;1709189;82;21007;-74
2022/01/09 03:47:52;;;;;;;12.67;8.27;;;;;;;-1.74;87.98;99448.66;1716550;82;21043;-73
2022/01/09 03:50:18;;;;;;;11.23;7.13;;;;;;;-1.87;88.13;99450.55;1742360;82;20993;-74
2022/01/09 03:52:49;;;;;;;9.37;6.40;;;;;;;-1.91;88.29;99447.13;1736923;82;21009;-74
2022/01/09 03:55:19;;;;;;;11.53;7.40;;;;;;;-1.93;88.57;99436.78;1667669;85;21066;-74
2022/01/09 03:57:46;;;;;;;15.23;8.57;;;;;;;-1.96;88.72;99446.83;1688008;83;20934;-75
2022/01/09 04:00:16;;;;;;;12.10;8.17;;;;;;;-1.94;88.94;99447.00;1699969;83;21033;-73
2022/01/09 04:02:45;;;;;;;12.17;8.07;;;;;;;-1.91;89.04;99436.09;1715743;82;21420;-74
2022/01/09 04:05:11;;;;;;;13.80;8.27;;;;;;;-1.88;89.11;99435.77;1736124;82;21062;-79
2022/01/09 04:07:38;;;;;;;15.43;7.57;;;;;;;-1.89;89.08;99437.25;1735578;82;21971;-73
2022/01/09 04:10:05;;;;;;;13.70;8.53;;;;;;;-1.90;89.12;99427.20;1735634;82;21608;-73
2022/01/09 04:12:35;;;;;;;15.43;8.70;;;;;;;-1.89;89.15;99425.39;1735439;82;21701;-74
2022/01/09 04:15:03;;;;;;;15.47;8.70;;;;;;;-1.90;89.21;99427.20;1727110;82;20968;-79
2022/01/09 04:17:52;;;;;;;15.67;8.50;;;;;;;-1.88;89.35;99421.27;1696450;84;21030;-79
2022/01/09 04:19:58;;;;;;;16.63;7.93;;;;;;;-1.88;89.23;99417.31;1659450;85;21715;-80
2022/01/09 04:22:24;;;;;;;12.73;8.63;;;;;;;-1.95;89.39;99408.95;1666054;85;21041;-77
2022/01/09 04:24:51;;;;;;;12.70;8.87;;;;;;;-1.98;89.47;99410.64;1669576;82;21503;-78
2022/01/09 04:27:18;;;;;;;12.13;9.37;;;;;;;-1.96;89.64;99407.31;1712760;83;21020;-79
2022/01/09 04:29:44;;;;;;;13.33;9.53;;;;;;;-1.96;89.79;99408.63;1696793;84;21567;-79
2022/01/09 04:32:10;;;;;;;14.57;8.87;;;;;;;-1.99;89.75;99413.77;1713023;82;21148;-75
2022/01/09 04:34:37;;;;;;;13.63;9.00;;;;;;;-1.98;89.94;99407.50;1668058;84;21561;-80
2022/01/09 04:37:04;;;;;;;18.77;10.57;;;;;;;-2.00;90.21;99408.17;1705468;82;21596;-74
2022/01/09 04:39:31;;;;;;;14.50;9.80;;;;;;;-2.04;90.43;99403.43;1724855;82;21060;-74
2022/01/09 04:41:57;;;;;;;14.67;10.80;;;;;;;-2.06;90.38;99407.55;1741597;82;21494;-75
2022/01/09 04:44:25;;;;;;;16.87;10.67;;;;;;;-2.03;90.58;99403.27;1735164;81;21751;-75
2022/01/09 04:47:00;;;;;;;19.80;10.77;;;;;;;-1.99;90.58;99379.52;1724748;82;21000;-76
2022/01/09 04:49:23;;;;;;;21.10;11.47;;;;;;;-2.02;90.58;99383.83;1740665;82;21036;-77
2022/01/09 04:51:49;;;;;;;20.10;11.03;;;;;;;-2.06;90.71;99379.88;1741532;81;21514;-77
2022/01/09 04:54:17;;;;;;;14.63;10.30;;;;;;;-2.05;90.79;99377.58;1739749;81;20945;-76
2022/01/09 04:56:43;;;;;;;20.13;11.23;;;;;;;-1.99;90.95;99373.42;1741954;82;21126;-76
2022/01/09 04:59:09;;;;;;;13.13;9.97;;;;;;;-1.97;90.88;99373.58;1714113;81;21011;-76
2022/01/09 05:01:37;;;;;;;22.73;13.07;;;;;;;-1.97;91.01;99372.27;1683482;84;21009;-75
2022/01/09 05:04:03;;;;;;;18.80;11.10;;;;;;;-1.98;91.03;99369.30;1713753;82;21538;-76
2022/01/09 05:06:29;;;;;;;17.93;10.47;;;;;;;-1.94;91.19;99362.67;1695814;84;21096;-76
2022/01/09 05:08:56;;;;;;;17.37;9.03;;;;;;;-1.96;91.04;99358.56;1698460;84;21048;-76
2022/01/09 05:11:23;;;;;;;20.53;11.43;;;;;;;-1.97;91.27;99359.09;1680550;84;21024;-77
2022/01/09 05:13:49;;;;;;;27.37;14.00;;;;;;;-1.96;91.36;99350.16;1704843;82;21503;-76
2022/01/09 05:16:15;;;;;;;20.10;11.93;;;;;;;-1.93;91.35;99356.91;1680575;83;21033;-76
2022/01/09 05:18:52;;;;;;;24.03;13.47;;;;;;;-1.84;91.59;99353.20;1712322;83;21586;-76
2022/01/09 05:21:10;;;;;;;18.93;12.30;;;;;;;-1.83;91.15;99350.89;1684375;83;21086;-76
2022/01/09 05:23:37;;;;;;;20.20;11.87;;;;;;;-1.84;91.13;99355.34;1712439;83;20942;-76
2022/01/09 05:26:03;;;;;;;26.03;12.90;;;;;;;-1.86;91.01;99345.96;1685891;83;21037;-77
2022/01/09 05:28:30;;;;;;;16.87;11.03;;;;;;;-1.88;90.94;99350.61;1712140;83;21069;-75
2022/01/09 05:30:57;;;;;;;24.87;12.53;;;;;;;-1.88;90.90;99354.06;1712661;83;21034;-73
2022/01/09 05:33:23;;;;;;;17.03;12.50;;;;;;;-1.89;90.90;99341.06;1712642;83;21518;-74
2022/01/09 05:35:49;;;;;;;22.40;12.60;;;;;;;-1.89;91.06;99342.38;1724845;82;20963;-74
2022/01/09 05:38:18;;;;;;;22.73;12.87;;;;;;;-1.89;91.18;99333.98;1727373;82;20981;-75
2022/01/09 05:40:45;;;;;;;23.27;14.47;;;;;;;-1.91;91.14;99331.18;1727463;82;20986;-76
2022/01/09 05:43:11;;;;;;;28.37;15.17;;;;;;;-1.97;91.20;99325.33;1727264;83;21127;-77
2022/01/09 05:45:38;;;;;;;22.73;14.00;;;;;;;-2.00;91.42;99322.54;1716202;83;21138;-76
2022/01/09 05:48:06;;;;;;;23.50;14.50;;;;;;;-1.96;91.59;99325.63;1712150;83;21012;-76
2022/01/09 05:50:33;;;;;;;27.03;14.80;;;;;;;-1.92;91.50;99326.94;1712139;83;21075;-76
2022/01/09 05:53:00;;;;;;;20.03;12.93;;;;;;;-1.92;91.36;99323.77;1685592;83;21537;-75
2022/01/09 05:55:26;;;;;;;21.00;13.27;;;;;;;-1.92;91.39;99321.14;1730801;82;20968;-77
2022/01/09 05:57:53;;;;;;;17.80;12.90;;;;;;;-1.94;91.26;99316.56;1732819;82;21601;-77
2022/01/09 06:00:19;;;;;;;21.97;14.13;;;;;;;-1.93;91.41;99328.75;1713302;82;21099;-76
2022/01/09 06:02:45;;;;;;;28.80;16.70;;;;;;;-1.94;91.35;99321.02;1712141;83;21048;-77
2022/01/09 06:05:12;;;;;;;25.13;14.17;;;;;;;-1.98;91.44;99304.75;1712661;82;20995;-79
2022/01/09 06:07:41;;;;;;;27.90;13.63;;;;;;;-2.01;91.71;99305.58;1685437;83;21033;-75
2022/01/09 06:10:10;;;;;;;27.40;15.57;;;;;;;-2.02;91.96;99313.19;1686826;84;21011;-75
2022/01/09 06:12:36;;;;;;;23.00;13.63;;;;;;;-1.99;91.97;99314.14;1709208;84;21014;-72
2022/01/09 06:15:03;;;;;;;28.97;17.43;;;;;;;-1.97;92.11;99318.75;1721636;82;21029;-75
2022/01/09 06:17:36;;;;;;;29.50;16.70;;;;;;;-2.03;92.19;99314.18;1656598;85;21066;-75
2022/01/09 06:20:04;;;;;;;24.25;15.28;;;;;;;-2.05;92.29;99309.58;1682166;84;21057;-74
2022/01/09 06:22:32;;;;;;;23.73;13.33;;;;;;;-2.07;92.33;99309.77;1656318;85;21881;-74
2022/01/09 06:24:58;;;;;;;24.10;15.10;;;;;;;-2.03;92.49;99291.29;1653910;85;21633;-75
2022/01/09 06:27:24;;;;;;;22.07;12.33;;;;;;;-1.99;92.40;99294.38;1710674;83;21061;-76
2022/01/09 06:29:50;;;;;;;22.87;15.43;;;;;;;-2.00;92.32;99301.46;1684141;83;21049;-77
2022/01/09 06:32:17;;;;;;;24.07;15.03;;;;;;;-1.98;92.28;99304.75;1710484;83;21103;-78
2022/01/09 06:34:44;;;;;;;26.60;17.07;;;;;;;-1.97;92.24;99297.17;1703280;83;21565;-76
2022/01/09 06:37:14;;;;;;;32.67;16.23;;;;;;;-1.93;92.42;99298.94;1678012;84;21000;-77
2022/01/09 06:39:41;;;;;;;25.70;14.93;;;;;;;-1.89;92.44;99302.84;1682214;83;21040;-75
2022/01/09 06:42:07;;;;;;;25.13;13.37;;;;;;;-1.90;92.15;99299.89;1682108;84;21096;-77
2022/01/09 06:44:34;;;;;;;26.23;14.87;;;;;;;-1.87;92.12;99303.50;1682130;84;21068;-76
2022/01/09 06:47:02;;;;;;;25.90;17.53;;;;;;;-1.89;92.16;99292.30;1682426;84;21028;-77
2022/01/09 06:49:28;;;;;;;28.73;16.10;;;;;;;-1.95;92.05;99289.06;1657448;85;21546;-76
2022/01/09 06:51:57;;;;;;;24.13;16.07;;;;;;;-1.94;92.27;99293.34;1682158;84;21039;-78
2022/01/09 06:54:25;;;;;;;24.70;14.33;;;;;;;-1.90;92.42;99295.94;1656704;85;21083;-77
2022/01/09 06:56:52;;;;;;;26.90;14.47;;;;;;;-1.88;92.31;99277.64;1682045;85;21037;-78
2022/01/09 06:59:18;;;;;;;24.03;15.43;;;;;;;-1.84;92.36;99271.50;1682152;83;21100;-77
2022/01/09 07:01:44;;;;;;;30.20;16.77;;;;;;;-1.85;92.15;99268.55;1678618;84;22201;-77
2022/01/09 07:04:11;;;;;;;24.57;15.83;;;;;;;-1.79;92.24;99269.97;1697428;83;21092;-78
2022/01/09 07:06:37;;;;;;;23.23;15.20;;;;;;;-1.82;91.86;99266.85;1682091;84;21503;-79
2022/01/09 07:09:06;;;;;;;25.47;15.67;;;;;;;-1.85;91.87;99260.64;1690168;82;21013;-76
2022/01/09 07:11:32;;;;;;;25.10;15.07;;;;;;;-1.81;92.02;99262.73;1712962;82;21529;-77
2022/01/09 07:13:59;;;;;;;22.23;12.90;;;;;;;-1.78;91.91;99257.61;1712544;83;21597;-76
2022/01/09 07:16:26;;;;;;;22.53;13.47;;;;;;;-1.78;91.84;99257.11;1698269;83;21036;-77
2022/01/09 07:18:52;;;;;;;23.20;15.33;;;;;;;-1.79;91.65;99259.42;1698357;83;21016;-81
2022/01/09 07:21:18;;;;;;;25.87;15.30;;;;;;;-1.83;91.44;99260.80;1737845;82;20997;-82
2022/01/09 07:23:45;;;;;;;25.53;15.30;;;;;;;-1.87;91.56;99262.13;1742568;81;21524;-81
2022/01/09 07:26:11;;;;;;;32.60;16.87;;;;;;;-1.84;91.80;99257.83;1742261;81;20980;-81
2022/01/09 07:28:37;;;;;;;20.33;15.17;;;;;;;-1.83;91.81;99254.70;1742375;81;20905;-81
2022/01/09 07:31:03;;;;;;;27.50;15.33;;;;;;;-1.86;91.80;99256.36;1736813;82;21009;-76
2022/01/09 07:33:30;;;;;;;30.93;17.07;;;;;;;-1.90;91.92;99257.72;1727324;81;21021;-75
2022/01/09 07:35:57;;;;;;;33.93;16.73;;;;;;;-1.88;92.06;99252.61;1698199;83;21059;-76
2022/01/09 07:38:23;;;;;;;25.27;14.37;;;;;;;-1.83;92.13;99250.25;1712557;83;21072;-77
2022/01/09 07:40:51;;;;;;;34.27;16.97;;;;;;;-1.82;92.04;99249.72;1698650;83;20988;-76
2022/01/09 07:43:18;;;;;;;35.13;17.73;;;;;;;-1.82;91.95;99242.64;1712658;83;20993;-75
2022/01/09 07:45:45;;;;;;;26.53;16.00;;;;;;;-1.79;91.91;99245.42;1712590;83;21024;-76
2022/01/09 07:48:11;;;;;;;22.23;15.70;;;;;;;-1.83;91.93;99237.08;1712679;83;21138;-74
2022/01/09 07:50:38;;;;;;;24.57;14.33;;;;;;;-1.79;92.05;99235.70;1730353;81;21031;-75
2022/01/09 07:53:04;;;;;;;29.90;17.70;;;;;;;-1.75;91.96;99236.16;1712767;83;21028;-75
2022/01/09 07:55:31;;;;;;;32.13;19.30;;;;;;;-1.69;91.99;99233.30;1722214;83;21498;-77
2022/01/09 07:57:57;;;;;;;29.03;17.00;;;;;;;-1.68;91.89;99223.89;1712762;82;21035;-77
2022/01/09 08:00:23;;;;;;;29.03;18.40;;;;;;;-1.64;91.71;99212.47;1723074;82;21498;-74
2022/01/09 08:02:51;;;;;;;24.57;15.77;;;;;;;-1.60;91.72;99214.56;1741984;82;21585;-76
2022/01/09 08:05:17;;;;;;;26.37;18.47;;;;;;;-1.56;91.52;99209.23;1742115;82;21614;-74
2022/01/09 08:07:44;;;;;;;26.83;17.97;;;;;;;-1.58;91.15;99208.59;1727530;82;21601;-80
2022/01/09 08:10:11;;;;;;;29.70;17.53;;;;;;;-1.56;91.26;99209.73;1736029;81;21024;-77
2022/01/09 08:12:39;;;;;;;32.10;17.17;;;;;;;-1.56;91.10;99211.05;1733881;82;21145;-79
2022/01/09 08:15:06;;;;;;;27.00;15.87;;;;;;;-1.60;91.06;99203.20;1740246;81;20985;-80
2022/01/09 08:17:32;;;;;;;28.23;17.47;;;;;;;-1.59;91.25;99199.56;1727283;82;21053;-74
2022/01/09 08:19:59;;;;;;;26.07;16.17;;;;;;;-1.55;91.28;99199.01;1742004;82;21104;-75
2022/01/09 08:22:30;;;;;;;26.47;18.03;;;;;;;-1.49;91.34;99195.64;1742257;82;21572;-79
2022/01/09 08:24:54;;;;;;;28.90;15.87;;;;;;;-1.45;91.20;99188.17;1723309;82;21085;-77
2022/01/09 08:27:21;;;;;;;22.67;14.13;;;;;;;-1.40;91.19;99181.34;1740384;82;21087;-80
2022/01/09 08:29:47;;;;;;;27.43;14.17;;;;;;;-1.38;90.99;99175.86;1740205;81;21541;-76
2022/01/09 08:32:14;;;;;;;30.40;18.27;;;;;;;-1.38;90.72;99181.95;1716969;82;21094;-80
2022/01/09 08:34:42;;;;;;;25.17;16.80;;;;;;;-1.42;90.61;99180.70;1735401;81;21084;-73
2022/01/09 08:37:11;;;;;;;27.83;17.40;;;;;;;-1.45;90.53;99177.13;1721162;82;21512;-77
2022/01/09 08:39:39;;;;;;;29.50;18.40;;;;;;;-1.40;90.75;99175.25;1727315;82;21014;-77
2022/01/09 08:42:07;;;;;;;27.83;16.93;;;;;;;-1.36;90.66;99173.37;1738661;82;21019;-77
2022/01/09 08:44:33;;;;;;;28.63;18.10;;;;;;;-1.30;90.68;99168.36;1734220;82;21576;-75
2022/01/09 08:47:00;;;;;;;31.97;18.47;;;;;;;-1.26;90.50;99163.84;1678655;83;21051;-76
2022/01/09 08:49:26;;;;;;;28.90;17.57;;;;;;;-1.24;90.40;99167.09;1714087;83;21562;-77
2022/01/09 08:51:54;;;;;;;26.63;16.13;;;;;;;-1.25;90.16;99162.84;1683903;85;21020;-77
2022/01/09 08:54:21;;;;;;;28.03;18.20;;;;;;;-1.32;90.13;99160.13;1677727;84;21047;-82
2022/01/09 08:56:47;;;;;;;28.97;18.37;;;;;;;-1.33;90.29;99166.39;1708176;82;21145;-83
2022/01/09 08:59:14;;;;;;;29.60;18.07;;;;;;;-1.29;90.49;99157.59;1708947;84;21408;-79
2022/01/09 09:01:44;;;;;;;23.30;15.60;;;;;;;-1.22;90.52;99160.31;1708981;84;21102;-83
2022/01/09 09:04:10;;;;;;;30.63;19.67;;;;;;;-1.14;90.40;99154.91;1674852;83;21127;-79
2022/01/09 09:06:41;;;;;;;27.97;17.77;;;;;;;-1.09;90.10;99148.56;1692825;84;21584;-80
2022/01/09 09:09:08;;;;;;;37.07;19.87;;;;;;;-1.08;89.93;99141.80;1684084;84;21593;-82
2022/01/09 09:11:35;;;;;;;28.90;20.10;;;;;;;-1.08;89.80;99142.29;1761090;80;21005;-80
2022/01/09 09:14:02;;;;;;;38.63;21.03;;;;;;;-1.08;89.76;99137.02;1743339;81;21107;-80
2022/01/09 09:16:33;;;;;;;31.33;19.90;;;;;;;-1.07;89.66;99137.34;1764973;80;20953;-82
2022/01/09 09:19:00;;;;;;;29.50;19.97;;;;;;;-1.07;89.65;99135.52;1774013;80;20990;-82
2022/01/09 09:21:27;;;;;;;33.23;21.20;;;;;;;-1.03;89.77;99132.81;1774315;80;21076;-80
2022/01/09 09:23:55;;;;;;;29.47;16.73;;;;;;;-1.01;89.45;99125.50;1792522;80;21475;-77
2022/01/09 09:26:22;;;;;;;33.63;21.03;;;;;;;-1.07;89.35;99121.00;1742866;80;21036;-78
2022/01/09 09:28:51;;;;;;;38.90;23.30;;;;;;;-1.06;89.47;99115.23;1792136;80;21063;-80
2022/01/09 09:31:17;;;;;;;33.23;20.87;;;;;;;-1.04;89.43;99114.02;1792258;80;21029;-77
2022/01/09 09:33:44;;;;;;;46.20;23.57;;;;;;;-0.99;89.37;99107.67;1773072;80;21342;-79
2022/01/09 09:36:10;;;;;;;35.73;22.03;;;;;;;-0.98;89.10;99103.22;1775031;80;21040;-77
2022/01/09 09:38:36;;;;;;;37.03;20.27;;;;;;;-0.98;89.00;99104.53;1760635;81;21035;-78
2022/01/09 09:41:03;;;;;;;36.03;18.40;;;;;;;-1.02;88.95;99105.92;1760941;81;21048;-78
2022/01/09 09:43:29;;;;;;;35.00;21.43;;;;;;;-1.04;89.17;99100.00;1760930;81;20957;-76
2022/01/09 09:45:55;;;;;;;32.20;21.77;;;;;;;-1.02;89.24;99105.92;1769690;80;22175;-76
2022/01/09 09:48:22;;;;;;;32.90;20.40;;;;;;;-1.03;89.35;99101.14;1763878;80;20994;-78
2022/01/09 09:50:49;;;;;;;35.47;23.43;;;;;;;-0.99;89.46;99105.03;1763905;80;21023;-76
2022/01/09 09:53:15;;;;;;;31.63;19.63;;;;;;;-0.98;89.37;99095.30;1781277;80;21032;-80
2022/01/09 09:55:44;;;;;;;29.93;20.50;;;;;;;-0.97;89.40;99086.37;1756747;81;21032;-81
2022/01/09 09:58:10;;;;;;;33.70;20.97;;;;;;;-0.97;89.44;99083.23;1743062;81;21036;-82
2022/01/09 10:00:37;;;;;;;35.50;23.33;;;;;;;-0.93;89.46;99079.20;1760821;81;21494;-76
2022/01/09 10:03:04;;;;;;;37.33;22.87;;;;;;;-0.89;89.33;99080.95;1743206;81;21035;-75
2022/01/09 10:05:38;;;;;;;32.27;22.07;;;;;;;-0.92;89.07;99072.93;1746307;80;21644;-80
2022/01/09 10:08:15;;;;;;;35.67;24.13;;;;;;;-0.93;89.22;99061.23;1763936;80;21075;-79
2022/01/09 10:10:42;;;;;;;39.07;23.20;;;;;;;-0.99;89.22;99058.03;1764885;80;21637;-81
2022/01/09 10:13:15;;;;;;;36.50;22.23;;;;;;;-1.02;89.45;99045.23;1766970;80;21514;-81
2022/01/09 10:15:53;;;;;;;37.87;22.07;;;;;;;-1.05;89.57;99042.95;1790549;80;21541;-79
2022/01/09 10:18:45;;;;;;;35.97;22.97;;;;;;;-1.04;89.73;99036.17;1776268;80;21007;-81
2022/01/09 10:21:16;;;;;;;34.78;20.75;;;;;;;-1.06;89.74;99040.84;1774451;79;21021;-77
2022/01/09 10:24:07;;;;;;;35.40;21.47;;;;;;;-1.05;89.93;99038.50;1761952;81;21495;-78
2022/01/09 10:26:38;;;;;;;31.57;21.47;;;;;;;-1.05;89.88;99035.04;1775740;80;21099;-77
2022/01/09 10:29:06;;;;;;;35.23;21.57;;;;;;;-1.03;90.00;99035.17;1782137;79;21188;-76
2022/01/09 10:31:44;;;;;;;34.10;20.97;;;;;;;-1.02;89.95;99034.67;1766215;80;20945;-78
2022/01/09 10:34:10;;;;;;;31.40;20.97;;;;;;;-1.04;89.96;99040.13;1781942;80;21079;-75
2022/01/09 10:36:50;;;;;;;37.87;23.77;;;;;;;-1.04;90.18;99044.09;1769110;79;21036;-81
2022/01/09 10:39:24;;;;;;;50.00;28.60;;;;;;;-1.02;90.17;99047.87;1750467;80;21025;-76
2022/01/09 10:41:59;;;;;;;31.60;19.67;;;;;;;-0.99;90.36;99048.80;1724943;82;21544;-80
2022/01/09 10:44:34;;;;;;;34.37;21.27;;;;;;;-0.96;90.55;99039.98;1701782;82;20976;-73
2022/01/09 10:47:05;;;;;;;37.37;24.00;;;;;;;-0.94;90.50;99030.56;1761621;80;21541;-77
2022/01/09 10:49:43;;;;;;;35.73;23.67;;;;;;;-0.91;90.52;99020.93;1763684;81;21573;-75
2022/01/09 10:52:26;;;;;;;30.97;20.67;;;;;;;-0.86;90.48;99016.42;1763582;81;21037;-76
2022/01/09 10:54:56;;;;;;;39.03;22.67;;;;;;;-0.74;90.65;99014.36;1763785;81;21143;-76
2022/01/09 10:57:28;;;;;;;37.33;24.30;;;;;;;-0.79;90.12;99011.48;1776283;80;21004;-74
2022/01/09 11:00:12;;;;;;;36.30;24.33;;;;;;;-0.83;90.19;99005.47;1794931;80;20969;-79
2022/01/09 11:02:39;;;;;;;38.57;24.20;;;;;;;-0.83;90.35;99001.51;1772179;80;21007;-77
2022/01/09 11:05:06;;;;;;;37.50;22.43;;;;;;;-0.84;90.46;98997.23;1794311;80;21001;-78
2022/01/09 11:07:33;;;;;;;38.27;22.20;;;;;;;-0.84;90.55;98987.99;1737792;81;21147;-76
2022/01/09 11:10:01;;;;;;;33.53;23.67;;;;;;;-0.80;90.65;98994.52;1762904;81;21113;-78
2022/01/09 11:12:35;;;;;;;35.60;22.00;;;;;;;-0.80;90.42;98999.79;1743681;81;20986;-80
2022/01/09 11:15:00;;;;;;;37.70;23.10;;;;;;;-0.80;90.59;98997.15;1742930;81;20989;-77
2022/01/09 11:17:31;;;;;;;34.93;21.83;;;;;;;-0.84;90.58;98994.09;1743593;81;21542;-79
2022/01/09 11:19:57;;;;;;;42.23;23.93;;;;;;;-0.81;90.83;98983.14;1718680;81;21577;-78
2022/01/09 11:22:24;;;;;;;36.93;22.50;;;;;;;-0.85;90.76;98993.77;1760522;81;20961;-79
2022/01/09 11:25:09;;;;;;;34.73;22.47;;;;;;;-0.85;90.99;98994.27;1751796;80;20992;-80